Time;durP1;ratioP1;P1;durP2;ratioP2;P2;SDS_P1;SDS_P2;PMS_P1;PMS_P2;Temp;Humidity;BMP_temperature;BMP_pressure;BME280_temperature;BME280_humidity;BME280_pressure;Samples;Min_cycle;Max_cycle;Signal;HPM_P1;HPM_P2
2021/12/18 00:00:41;;;;;;;2.42;1.87;;;;;;;1.21;75.74;99881.56;1743659;81;20954;-59
2021/12/18 00:03:08;;;;;;;2.75;2.08;;;;;;;1.25;75.42;99881.55;1717713;81;21573;-60
2021/12/18 00:05:37;;;;;;;2.12;1.70;;;;;;;1.27;75.50;99884.14;1715209;82;21634;-59
2021/12/18 00:08:04;;;;;;;1.93;1.67;;;;;;;1.26;75.73;99883.29;1722077;81;21784;-60
2021/12/18 00:10:31;;;;;;;3.27;2.05;;;;;;;1.25;75.58;99884.58;1742380;81;21520;-59
2021/12/18 00:13:01;;;;;;;2.60;1.70;;;;;;;1.24;74.79;99879.80;1725393;81;21045;-60
2021/12/18 00:15:29;;;;;;;5.08;1.70;;;;;;;1.15;74.86;99881.14;1719909;81;21471;-60
2021/12/18 00:17:56;;;;;;;2.30;1.52;;;;;;;1.18;75.47;99884.15;1690046;83;21518;-59
2021/12/18 00:20:25;;;;;;;1.98;1.45;;;;;;;1.28;75.37;99888.44;1710233;82;21665;-60
2021/12/18 00:22:53;;;;;;;2.15;1.40;;;;;;;1.35;74.50;99886.28;1692609;82;21494;-60
2021/12/18 00:25:20;;;;;;;3.08;1.50;;;;;;;1.32;74.37;99887.16;1693095;83;21539;-59
2021/12/18 00:27:48;;;;;;;2.42;1.32;;;;;;;1.29;74.57;99885.00;1697957;82;21424;-62
2021/12/18 00:30:15;;;;;;;1.30;1.10;;;;;;;1.26;74.14;99887.17;1695322;83;22074;-60
2021/12/18 00:32:42;;;;;;;1.65;0.98;;;;;;;1.22;74.03;99890.61;1713999;82;21861;-60
2021/12/18 00:35:09;;;;;;;1.95;1.02;;;;;;;1.12;73.97;99892.34;1714635;82;21622;-60
2021/12/18 00:37:36;;;;;;;2.60;1.35;;;;;;;1.13;74.08;99892.80;1708319;82;21459;-59
2021/12/18 00:40:09;;;;;;;1.40;1.30;;;;;;;1.14;74.28;99896.23;1676854;84;21543;-60
2021/12/18 00:45:09;;;;;;;2.05;1.15;;;;;;;1.12;73.92;99905.30;1697558;82;21739;-59
2021/12/18 00:47:38;;;;;;;1.40;1.10;;;;;;;1.05;73.96;99910.03;1700850;82;21187;-59
2021/12/18 00:50:06;;;;;;;1.72;1.12;;;;;;;1.04;74.03;99910.06;1701524;82;21504;-59
2021/12/18 00:52:34;;;;;;;1.47;1.10;;;;;;;0.99;74.54;99909.19;1702582;82;21559;-60
2021/12/18 00:55:03;;;;;;;1.65;1.02;;;;;;;0.99;75.02;99908.75;1705048;82;21566;-59
2021/12/18 00:57:31;;;;;;;1.55;1.10;;;;;;;1.05;74.40;99908.74;1695769;81;21581;-59
2021/12/18 01:00:03;;;;;;;2.53;1.23;;;;;;;1.08;74.72;99910.49;1684048;83;21487;-59
2021/12/18 01:02:30;;;;;;;1.60;1.20;;;;;;;1.12;74.65;99916.95;1711999;82;21823;-60
2021/12/18 01:04:57;;;;;;;2.12;1.05;;;;;;;1.12;74.96;99913.51;1686370;82;21490;-59
2021/12/18 01:07:25;;;;;;;1.22;1.05;;;;;;;1.16;74.77;99921.26;1715568;81;27161;-59
2021/12/18 01:12:33;;;;;;;2.50;1.47;;;;;;;1.05;74.66;99922.98;1640774;86;21497;-59
2021/12/18 01:22:48;;;;;;;2.55;1.37;;;;;;;1.23;75.02;99918.69;1697939;83;22128;-60
2021/12/18 01:25:17;;;;;;;2.75;1.62;;;;;;;1.21;74.86;99922.58;1690732;83;21557;-60
2021/12/18 01:27:44;;;;;;;1.05;0.90;;;;;;;1.19;74.55;99924.71;1695511;82;21076;-59
2021/12/18 01:30:12;;;;;;;1.75;1.35;;;;;;;1.06;74.25;99929.05;1686396;83;21546;-59
2021/12/18 01:32:40;;;;;;;1.65;1.27;;;;;;;1.10;74.74;99926.89;1689662;82;21454;-60
2021/12/18 01:35:08;;;;;;;2.42;1.35;;;;;;;1.18;74.57;99931.63;1671853;83;21541;-60
2021/12/18 01:37:36;;;;;;;1.55;1.10;;;;;;;1.12;74.89;99932.49;1690124;82;21077;-60
2021/12/18 01:40:05;;;;;;;1.92;1.10;;;;;;;1.10;75.02;99926.89;1700845;83;21507;-59
2021/12/18 01:53:11;;;;;;;1.85;1.30;;;;;;;1.14;74.96;99936.38;1692618;83;20966;-64
2021/12/18 01:55:39;;;;;;;2.33;1.32;;;;;;;1.04;74.91;99926.45;1695902;83;21493;-60
2021/12/18 01:58:08;;;;;;;2.30;1.20;;;;;;;1.01;75.45;99933.36;1679498;83;21511;-60
2021/12/18 02:00:42;;;;;;;2.10;1.17;;;;;;;1.00;75.30;99935.09;1690075;83;21746;-60
2021/12/18 02:03:09;;;;;;;1.87;1.00;;;;;;;0.96;75.55;99935.52;1690033;83;21510;-60
2021/12/18 02:05:37;;;;;;;2.37;1.25;;;;;;;0.95;75.30;99935.52;1699508;83;21485;-62
2021/12/18 02:08:05;;;;;;;2.37;1.10;;;;;;;0.95;75.39;99935.52;1682024;83;21534;-59
2021/12/18 02:10:44;;;;;;;1.27;1.05;;;;;;;0.97;74.94;99938.96;1688441;83;21541;-61
2021/12/18 02:21:17;;;;;;;1.62;1.10;;;;;;;0.84;75.12;99940.66;1717838;82;21546;-60
2021/12/18 02:23:41;;;;;;;1.37;1.27;;;;;;;0.87;75.54;99941.98;1713509;82;21506;-60
2021/12/18 02:26:08;;;;;;;1.30;0.90;;;;;;;0.86;75.48;99945.85;1701597;82;21813;-60
2021/12/18 02:28:36;;;;;;;3.45;1.07;;;;;;;0.87;75.32;99945.86;1692292;83;21497;-60
2021/12/18 02:31:03;;;;;;;1.80;1.37;;;;;;;0.81;75.40;99941.09;1716784;82;21561;-60
2021/12/18 02:33:32;;;;;;;2.55;1.35;;;;;;;0.78;75.52;99947.98;1711641;81;21457;-60
2021/12/18 02:36:00;;;;;;;1.87;1.35;;;;;;;0.82;75.90;99950.16;1707016;82;21676;-60
2021/12/18 02:44:00;;;;;;;1.82;1.25;;;;;;;1.03;75.61;99954.50;1690076;82;21558;-60
2021/12/18 02:46:27;;;;;;;2.85;1.27;;;;;;;1.04;75.13;99961.86;1713303;82;21432;-60
2021/12/18 02:48:55;;;;;;;1.55;1.20;;;;;;;1.01;75.05;99959.25;1693307;82;21042;-59
2021/12/18 02:51:22;;;;;;;1.82;1.10;;;;;;;1.01;74.82;99968.31;1710190;82;21819;-60
2021/12/18 02:53:51;;;;;;;1.20;1.10;;;;;;;0.95;74.72;99974.34;1702907;82;25118;-60
2021/12/18 02:56:23;;;;;;;1.00;0.90;;;;;;;0.89;74.93;99976.50;1690883;83;21581;-60
2021/12/18 02:58:51;;;;;;;1.52;0.98;;;;;;;0.87;74.48;99976.07;1679476;83;21443;-60
2021/12/18 03:01:22;;;;;;;1.65;1.22;;;;;;;0.78;74.58;99978.20;1700413;82;21466;-60
2021/12/18 03:03:51;;;;;;;1.50;1.27;;;;;;;0.78;74.73;99988.11;1710923;82;21977;-60
2021/12/18 03:06:33;;;;;;;2.95;1.55;;;;;;;0.76;74.67;99985.95;1690993;83;21487;-60
2021/12/18 03:25:32;;;;;;;1.07;0.98;;;;;;;0.58;74.66;99985.89;1702713;82;21598;-61
2021/12/18 03:27:58;;;;;;;1.90;1.20;;;;;;;0.58;74.52;99993.66;1698310;82;21554;-58
2021/12/18 03:30:24;;;;;;;0.70;0.70;;;;;;;0.61;74.03;99994.97;1699336;82;21842;-60
2021/12/18 03:32:51;;;;;;;1.75;1.20;;;;;;;0.61;74.36;100006.62;1704777;82;21426;-60
2021/12/18 03:35:18;;;;;;;3.12;0.90;;;;;;;0.62;74.36;100013.50;1685794;83;21538;-60
2021/12/18 03:37:46;;;;;;;2.87;1.00;;;;;;;0.61;74.30;100007.91;1703438;82;21471;-60
2021/12/18 03:40:16;;;;;;;1.10;1.00;;;;;;;0.66;74.19;100016.56;1684917;83;21570;-60
2021/12/18 03:42:46;;;;;;;1.35;0.90;;;;;;;0.63;74.24;100020.86;1692334;82;22021;-60
2021/12/18 03:45:14;;;;;;;1.50;1.15;;;;;;;0.62;73.95;100017.39;1721743;81;21459;-60
2021/12/18 03:47:41;;;;;;;1.42;1.15;;;;;;;0.63;74.02;100018.28;1699012;83;21542;-60
2021/12/18 03:50:09;;;;;;;2.58;1.50;;;;;;;0.64;74.29;100019.58;1718896;82;21475;-60
2021/12/18 03:52:36;;;;;;;;;;;;;;;0.65;74.33;100021.73;1698152;83;21413;-60
2021/12/18 03:55:04;;;;;;;1.40;1.30;;;;;;;0.68;74.17;100021.31;1699498;82;21839;-60
2021/12/18 03:57:31;;;;;;;;;;;;;;;0.60;74.47;100016.96;1696418;83;21558;-60
2021/12/18 03:59:58;;;;;;;2.15;1.50;;;;;;;0.59;74.41;100035.52;1674764;83;20430;-60
2021/12/18 04:02:25;;;;;;;1.82;1.40;;;;;;;0.53;74.66;100038.94;1706449;82;21610;-59
2021/12/18 04:04:52;;;;;;;2.13;1.60;;;;;;;0.47;75.10;100041.91;1705508;82;21517;-59
2021/12/18 04:07:21;;;;;;;2.08;1.50;;;;;;;0.46;75.62;100038.91;1695683;82;22255;-59
2021/12/18 04:09:48;;;;;;;;;;;;;;;0.50;75.66;100033.73;1708522;82;20947;-59
2021/12/18 04:14:31;;;;;;;1.57;1.40;;;;;;;0.48;76.29;100051.42;1778022;79;22992;-62
2021/12/18 04:16:58;;;;;;;1.63;1.53;;;;;;;0.42;76.07;100050.11;1742197;80;21435;-61
2021/12/18 04:19:25;;;;;;;1.30;1.20;;;;;;;0.43;76.31;100041.03;1744026;80;22135;-61
2021/12/18 04:21:53;;;;;;;1.98;1.30;;;;;;;0.47;76.15;100041.91;1743161;81;21092;-61
2021/12/18 04:24:20;;;;;;;1.65;1.20;;;;;;;0.49;76.40;100038.90;1744796;80;20931;-62
2021/12/18 04:26:49;;;;;;;1.40;1.30;;;;;;;0.54;76.00;100042.38;1742771;80;21470;-62
2021/12/18 04:29:16;;;;;;;1.22;1.12;;;;;;;0.55;76.19;100051.45;1743557;81;21476;-62
2021/12/18 04:31:43;;;;;;;1.03;1.00;;;;;;;0.57;75.64;100046.29;1736723;80;21510;-61
2021/12/18 04:34:10;;;;;;;1.77;1.30;;;;;;;0.53;76.13;100059.64;1737594;80;21672;-61
2021/12/18 04:36:37;;;;;;;2.05;0.90;;;;;;;0.57;76.35;100052.77;1741471;80;21484;-62
2021/12/18 04:39:04;;;;;;;3.80;1.27;;;;;;;0.61;75.77;100057.08;1739541;80;21544;-62
2021/12/18 04:41:43;;;;;;;1.07;0.90;;;;;;;0.58;76.12;100060.94;1742305;80;21608;-61
2021/12/18 04:44:04;;;;;;;1.32;1.00;;;;;;;0.60;75.87;100057.07;1740410;80;21858;-62
2021/12/18 04:46:32;;;;;;;1.40;0.90;;;;;;;0.53;75.66;100054.47;1739940;80;21183;-60
2021/12/18 04:48:59;;;;;;;2.62;0.90;;;;;;;0.55;75.71;100057.06;1740067;80;21446;-61
2021/12/18 04:51:26;;;;;;;1.40;1.02;;;;;;;0.56;75.32;100062.22;1742738;80;21585;-61
2021/12/18 04:53:53;;;;;;;;;;;;;;;0.52;74.79;100056.60;1746371;80;21533;-62
2021/12/18 04:56:20;;;;;;;0.95;0.88;;;;;;;0.50;74.54;100062.20;1741083;80;20484;-60
2021/12/18 04:58:47;;;;;;;0.80;0.80;;;;;;;0.50;73.35;100071.26;1741237;80;21431;-61
2021/12/18 05:01:15;;;;;;;0.78;0.78;;;;;;;0.38;73.42;100066.89;1743095;80;21467;-61
2021/12/18 05:03:42;;;;;;;;;;;;;;;0.36;73.33;100071.20;1743500;80;21527;-62
2021/12/18 05:06:10;;;;;;;0.85;0.85;;;;;;;0.43;73.07;100073.81;1745712;81;20142;-61
2021/12/18 05:08:37;;;;;;;1.17;0.90;;;;;;;0.42;72.77;100083.73;1742042;80;21794;-60
2021/12/18 05:11:04;;;;;;;0.98;0.82;;;;;;;0.44;72.52;100080.73;1741963;80;21728;-61
2021/12/18 05:13:31;;;;;;;0.80;0.80;;;;;;;0.45;72.05;100092.35;1738325;80;21490;-60
2021/12/18 05:15:58;;;;;;;0.88;0.80;;;;;;;0.46;72.04;100096.69;1739305;80;21388;-60
2021/12/18 05:18:25;;;;;;;1.20;0.90;;;;;;;0.48;72.02;100094.97;1737043;80;21502;-60
2021/12/18 05:20:52;;;;;;;1.33;1.03;;;;;;;0.48;72.02;100094.97;1733438;80;21941;-61
2021/12/18 05:23:19;;;;;;;2.13;0.80;;;;;;;0.51;71.47;100097.98;1738014;80;21427;-61
2021/12/18 05:25:46;;;;;;;1.87;1.00;;;;;;;0.49;71.33;100095.83;1733000;80;21443;-61
2021/12/18 05:28:13;;;;;;;1.00;0.90;;;;;;;0.46;71.55;100096.69;1733206;80;21492;-61
2021/12/18 05:30:41;;;;;;;0.90;0.75;;;;;;;0.45;71.51;100103.99;1740740;82;21570;-61
2021/12/18 05:33:09;;;;;;;3.17;1.00;;;;;;;0.47;71.09;100110.08;1726166;80;22103;-61
2021/12/18 05:35:39;;;;;;;2.08;0.90;;;;;;;0.45;71.55;100106.58;1740666;80;21677;-60
2021/12/18 05:38:06;;;;;;;0.88;0.88;;;;;;;0.46;71.86;100107.47;1735836;80;21515;-61
2021/12/18 05:40:35;;;;;;;0.80;0.80;;;;;;;0.52;71.93;100117.84;1740390;80;21510;-61
2021/12/18 05:43:02;;;;;;;1.70;1.07;;;;;;;0.51;72.06;100126.45;1698573;83;21643;-60
2021/12/18 05:45:30;;;;;;;0.93;0.82;;;;;;;0.57;71.91;100132.98;1732244;80;21817;-60
2021/12/18 05:47:57;;;;;;;1.02;0.95;;;;;;;0.57;71.87;100131.69;1735904;80;21498;-61
2021/12/18 05:50:27;;;;;;;4.28;1.17;;;;;;;0.56;72.09;100140.29;1733384;80;21454;-60
2021/12/18 05:52:54;;;;;;;1.20;1.10;;;;;;;0.55;72.46;100145.05;1740922;81;21595;-60
2021/12/18 05:55:24;;;;;;;0.85;0.85;;;;;;;0.49;73.48;100147.58;1735533;80;21388;-62
2021/12/18 05:57:51;;;;;;;0.80;0.80;;;;;;;0.41;74.38;100146.67;1700279;82;21875;-61
2021/12/18 06:00:19;;;;;;;1.80;1.05;;;;;;;0.38;74.93;100156.58;1736930;80;21505;-60
2021/12/18 06:02:47;;;;;;;1.20;1.10;;;;;;;0.39;75.03;100151.39;1702214;82;21458;-61
2021/12/18 06:05:14;;;;;;;1.42;1.05;;;;;;;0.35;75.29;100153.97;1736528;80;21537;-60
2021/12/18 06:08:04;;;;;;;1.10;1.00;;;;;;;0.37;75.30;100147.08;1731953;80;21696;-60
2021/12/18 06:10:10;;;;;;;0.88;0.80;;;;;;;0.29;76.51;100152.20;1722766;82;21886;-62
2021/12/18 06:12:37;;;;;;;1.43;1.23;;;;;;;0.26;77.05;100148.28;1734917;80;21500;-61
2021/12/18 06:15:05;;;;;;;1.47;1.27;;;;;;;0.22;77.61;100159.47;1738798;80;21526;-61
2021/12/18 06:17:33;;;;;;;1.32;1.05;;;;;;;0.21;77.93;100154.28;1739216;82;21073;-61
2021/12/18 06:20:00;;;;;;;1.30;1.07;;;;;;;0.17;78.50;100168.50;1737108;80;21407;-61
2021/12/18 06:22:27;;;;;;;1.30;1.10;;;;;;;0.23;78.77;100168.97;1734705;80;21751;-63
2021/12/18 06:24:55;;;;;;;;;;;;;;;0.26;78.46;100172.86;1741285;82;21506;-61
2021/12/18 06:27:22;;;;;;;1.30;1.20;;;;;;;0.19;78.28;100167.22;1738014;80;20415;-62
2021/12/18 06:29:49;;;;;;;1.20;1.10;;;;;;;0.17;77.82;100171.48;1737235;80;21487;-62
2021/12/18 06:32:16;;;;;;;1.22;1.12;;;;;;;0.12;77.94;100165.00;1737032;80;21535;-61
2021/12/18 06:34:43;;;;;;;1.50;1.32;;;;;;;0.17;77.62;100160.74;1735288;80;21853;-61
2021/12/18 06:37:11;;;;;;;2.45;1.27;;;;;;;0.15;77.28;100166.33;1734617;80;21477;-61
2021/12/18 06:39:39;;;;;;;2.52;1.37;;;;;;;0.17;77.44;100168.91;1732967;80;21422;-63
2021/12/18 06:42:06;;;;;;;1.17;1.02;;;;;;;0.21;77.07;100163.33;1733394;80;21612;-63
2021/12/18 06:44:35;;;;;;;1.50;1.25;;;;;;;0.26;76.54;100166.39;1736696;80;21542;-62
2021/12/18 06:47:03;;;;;;;1.72;1.20;;;;;;;0.23;75.87;100170.27;1731069;80;22042;-60
2021/12/18 06:49:30;;;;;;;2.50;1.32;;;;;;;0.24;75.73;100160.34;1733102;80;21425;-60
2021/12/18 06:51:57;;;;;;;2.35;1.30;;;;;;;0.28;75.67;100170.29;1730237;80;21609;-61
2021/12/18 06:54:24;;;;;;;1.20;1.15;;;;;;;0.26;75.89;100173.30;1731162;80;21430;-61
2021/12/18 06:56:52;;;;;;;1.40;1.17;;;;;;;0.32;75.55;100174.22;1729367;80;21550;-63
2021/12/18 06:59:19;;;;;;;2.62;1.35;;;;;;;0.30;75.33;100177.62;1732456;80;22072;-61
2021/12/18 07:01:46;;;;;;;1.77;1.20;;;;;;;0.26;75.07;100170.27;1734342;80;21814;-61
2021/12/18 07:04:13;;;;;;;2.62;1.22;;;;;;;0.23;75.67;100178.03;1734524;80;21499;-61
2021/12/18 07:06:40;;;;;;;1.40;1.10;;;;;;;0.31;75.74;100185.41;1740033;80;21397;-61
2021/12/18 07:09:07;;;;;;;1.50;1.40;;;;;;;0.39;75.58;100185.02;1734657;80;21483;-60
2021/12/18 07:11:34;;;;;;;2.27;1.22;;;;;;;0.35;76.49;100181.98;1735229;80;21801;-61
2021/12/18 07:14:01;;;;;;;1.60;1.50;;;;;;;0.29;77.71;100178.06;1735454;81;21551;-60
2021/12/18 07:16:29;;;;;;;1.67;1.52;;;;;;;0.34;77.89;100185.44;1740139;80;21463;-60
2021/12/18 07:18:56;;;;;;;1.42;1.25;;;;;;;0.29;78.14;100181.09;1724250;81;21023;-61
2021/12/18 07:21:23;;;;;;;1.32;1.12;;;;;;;0.34;78.01;100188.44;1722872;81;21527;-61
2021/12/18 07:23:52;;;;;;;2.12;1.70;;;;;;;0.35;78.29;100188.89;1722352;81;21788;-61
2021/12/18 07:26:19;;;;;;;2.65;1.90;;;;;;;0.38;77.75;100188.92;1723717;81;21632;-58
2021/12/18 07:28:47;;;;;;;3.12;1.50;;;;;;;0.35;77.59;100190.18;1729085;80;21548;-59
2021/12/18 07:31:14;;;;;;;2.47;1.67;;;;;;;0.34;77.83;100189.32;1729783;81;21622;-58
2021/12/18 07:33:42;;;;;;;3.40;1.70;;;;;;;0.30;78.33;100195.73;1724354;81;21452;-58
2021/12/18 07:36:10;;;;;;;2.25;2.05;;;;;;;0.34;78.75;100202.26;1726804;81;21871;-57
2021/12/18 07:38:37;;;;;;;2.58;1.80;;;;;;;0.39;78.52;100209.60;1728571;81;21539;-56
2021/12/18 07:41:05;;;;;;;2.27;1.80;;;;;;;0.50;78.22;100207.54;1729686;81;21566;-56
2021/12/18 07:43:32;;;;;;;3.75;1.87;;;;;;;0.57;78.15;100212.77;1728948;82;20932;-56
2021/12/18 07:46:00;;;;;;;2.55;1.92;;;;;;;0.59;78.24;100212.78;1725743;81;21474;-56
2021/12/18 07:48:27;;;;;;;2.20;2.00;;;;;;;0.52;78.00;100211.86;1728910;81;21869;-56
2021/12/18 07:50:54;;;;;;;;;;;;;;;0.51;77.69;100215.72;1732963;81;21579;-57
2021/12/18 07:53:23;;;;;;;2.30;2.02;;;;;;;0.52;77.92;100215.73;1729595;80;20540;-55
2021/12/18 07:55:51;;;;;;;3.60;2.47;;;;;;;0.58;77.58;100213.63;1726360;81;21479;-56
2021/12/18 07:58:18;;;;;;;2.95;2.60;;;;;;;0.65;77.64;100214.55;1729900;81;26935;-56
2021/12/18 08:00:45;;;;;;;2.33;2.02;;;;;;;0.75;77.75;100217.62;1733117;82;21812;-55
2021/12/18 08:03:12;;;;;;;2.35;2.15;;;;;;;0.90;76.96;100215.55;1714216;80;21537;-56
2021/12/18 08:05:40;;;;;;;5.40;2.08;;;;;;;0.92;76.88;100217.72;1733837;82;21060;-56
2021/12/18 08:08:07;;;;;;;3.05;2.25;;;;;;;0.94;76.66;100221.18;1724385;80;21498;-56
2021/12/18 08:10:34;;;;;;;2.62;2.20;;;;;;;0.87;76.32;100233.68;1730175;80;21516;-57
2021/12/18 08:13:01;;;;;;;2.75;2.50;;;;;;;0.80;76.45;100234.48;1726890;82;21819;-56
2021/12/18 08:15:28;;;;;;;3.55;2.67;;;;;;;0.78;76.66;100231.89;1737486;80;20939;-57
2021/12/18 08:17:58;;;;;;;2.87;1.98;;;;;;;0.77;76.79;100232.32;1733125;80;20982;-55
2021/12/18 08:20:26;;;;;;;1.95;1.77;;;;;;;0.88;76.97;100236.25;1728623;82;21547;-57
2021/12/18 08:22:53;;;;;;;2.40;2.20;;;;;;;0.93;76.34;100233.27;1732164;82;27119;-56
2021/12/18 08:25:21;;;;;;;3.22;1.87;;;;;;;0.90;76.26;100229.80;1737323;81;21843;-55
2021/12/18 08:27:49;;;;;;;2.60;2.40;;;;;;;0.94;76.56;100221.18;1733536;81;21420;-56
2021/12/18 08:30:17;;;;;;;3.22;2.70;;;;;;;0.94;76.37;100225.06;1737344;80;21661;-56
2021/12/18 08:32:44;;;;;;;3.65;2.80;;;;;;;0.87;75.56;100222.88;1735462;80;21570;-56
2021/12/18 08:35:11;;;;;;;4.45;2.87;;;;;;;0.89;75.69;100217.72;1728037;80;21549;-56
2021/12/18 08:37:38;;;;;;;5.33;3.42;;;;;;;0.88;75.85;100219.86;1726214;81;21782;-56
2021/12/18 08:40:06;;;;;;;3.05;2.45;;;;;;;0.87;75.83;100221.59;1736745;82;21514;-56
2021/12/18 08:42:33;;;;;;;8.03;2.47;;;;;;;0.91;76.43;100216.00;1701919;82;21513;-54
2021/12/18 08:45:02;;;;;;;4.33;3.10;;;;;;;0.91;76.61;100212.12;1700180;82;21624;-57
2021/12/18 08:47:29;;;;;;;3.58;3.25;;;;;;;0.79;76.82;100210.30;1701838;82;21531;-57
2021/12/18 08:49:57;;;;;;;;;;;;;;;0.63;77.30;100208.06;1703370;82;21624;-56
2021/12/18 08:52:24;;;;;;;3.98;2.87;;;;;;;0.57;77.87;100205.44;1666597;84;20435;-56
2021/12/18 08:54:51;;;;;;;5.12;2.77;;;;;;;0.53;78.18;100203.25;1728160;80;21412;-56
2021/12/18 08:57:18;;;;;;;3.67;2.55;;;;;;;0.62;78.31;100202.43;1728592;80;21530;-55
2021/12/18 08:59:45;;;;;;;3.45;2.12;;;;;;;0.75;77.95;100204.27;1729340;80;21542;-55
2021/12/18 09:02:13;;;;;;;3.22;2.27;;;;;;;0.83;77.57;100206.02;1731811;80;22109;-56
2021/12/18 09:04:40;;;;;;;4.60;2.47;;;;;;;0.86;77.07;100202.16;1731138;80;21680;-56
2021/12/18 09:07:07;;;;;;;6.37;3.40;;;;;;;0.86;76.73;100204.75;1733436;80;21455;-57
2021/12/18 09:09:35;;;;;;;5.28;2.90;;;;;;;0.84;76.44;100202.14;1729287;80;21450;-56
2021/12/18 09:12:03;;;;;;;4.22;2.62;;;;;;;0.82;76.32;100201.27;1728013;80;21619;-58
2021/12/18 09:14:30;;;;;;;6.65;3.15;;;;;;;0.88;75.79;100203.03;1725805;80;21767;-57
2021/12/18 09:16:57;;;;;;;5.20;2.70;;;;;;;0.90;75.57;100199.58;1722427;80;21491;-57
2021/12/18 09:19:24;;;;;;;3.17;2.50;;;;;;;0.96;75.13;100203.52;1725723;80;21538;-57
2021/12/18 09:21:51;;;;;;;3.62;2.42;;;;;;;0.96;75.13;100203.52;1706857;82;21653;-58
2021/12/18 09:24:20;;;;;;;5.17;2.90;;;;;;;0.95;75.33;100202.21;1708576;82;21542;-57
2021/12/18 09:26:48;;;;;;;4.62;2.65;;;;;;;0.97;75.13;100200.49;1699750;82;21853;-57
2021/12/18 09:29:15;;;;;;;3.37;2.62;;;;;;;0.95;75.42;100203.50;1703590;82;21531;-58
2021/12/18 09:31:42;;;;;;;4.65;3.22;;;;;;;0.97;75.08;100200.49;1706841;82;21573;-58
2021/12/18 09:34:10;;;;;;;;;;;;;;;0.90;75.04;100196.98;1727229;80;21514;-58
2021/12/18 09:36:36;;;;;;;2.30;2.10;;;;;;;0.78;75.10;100193.05;1720985;80;20182;-58
2021/12/18 09:39:04;;;;;;;2.35;2.08;;;;;;;0.78;75.10;100193.05;1725682;81;22199;-56
2021/12/18 09:41:32;;;;;;;4.08;2.10;;;;;;;0.75;75.34;100199.50;1723494;81;21736;-56
2021/12/18 09:44:00;;;;;;;4.87;2.65;;;;;;;0.69;75.22;100198.17;1728307;80;21436;-57
2021/12/18 09:46:30;;;;;;;3.17;1.95;;;;;;;0.66;75.76;100197.73;1736667;80;21483;-57
2021/12/18 09:48:57;;;;;;;3.55;2.33;;;;;;;0.71;75.82;100198.61;1677146;83;21553;-57
2021/12/18 09:51:27;;;;;;;2.50;2.25;;;;;;;0.75;75.77;100187.84;1693943;84;22026;-56
2021/12/18 09:53:56;;;;;;;2.70;2.20;;;;;;;0.81;75.09;100193.48;1698559;84;21428;-57
2021/12/18 09:56:24;;;;;;;2.35;2.15;;;;;;;0.86;75.33;100183.59;1689081;84;21525;-57
2021/12/18 09:58:52;;;;;;;3.77;2.67;;;;;;;0.87;75.51;100180.60;1694280;84;21454;-57
2021/12/18 10:01:19;;;;;;;3.37;2.12;;;;;;;0.89;75.19;100178.88;1696217;84;20989;-58
2021/12/18 10:03:51;;;;;;;3.27;2.17;;;;;;;0.86;75.27;100177.13;1728445;81;21803;-59
2021/12/18 10:06:41;;;;;;;5.37;2.95;;;;;;;0.80;74.73;100175.80;1719978;81;21494;-59
2021/12/18 10:09:22;;;;;;;3.70;2.67;;;;;;;0.76;74.62;100175.36;1696283;84;21635;-58
2021/12/18 10:11:56;;;;;;;3.75;3.08;;;;;;;0.73;75.09;100172.73;1690733;82;21847;-57
2021/12/18 10:14:40;;;;;;;3.00;2.35;;;;;;;0.74;74.99;100175.78;1684522;83;21516;-61
2021/12/18 10:17:42;;;;;;;3.67;3.33;;;;;;;0.67;74.87;100169.69;1699342;82;21799;-59
2021/12/18 10:20:22;;;;;;;3.15;2.72;;;;;;;0.70;74.95;100158.51;1723091;82;21545;-59
2021/12/18 10:22:55;;;;;;;3.98;2.98;;;;;;;0.73;74.89;100157.21;1732769;81;20984;-58
2021/12/18 10:25:29;;;;;;;5.65;2.30;;;;;;;0.74;74.98;100154.63;1711139;82;21559;-58
2021/12/18 10:28:13;;;;;;;3.50;2.27;;;;;;;0.72;74.60;100144.70;1726992;82;20978;-58
2021/12/18 10:30:50;;;;;;;3.12;2.33;;;;;;;0.78;74.38;100148.61;1719448;81;21077;-56
2021/12/18 10:33:17;;;;;;;2.33;2.00;;;;;;;0.77;74.27;100143.02;1704898;82;21509;-58
2021/12/18 10:35:54;;;;;;;3.52;2.22;;;;;;;0.84;74.16;100133.97;1714569;83;21431;-58
2021/12/18 10:38:48;;;;;;;2.47;1.97;;;;;;;0.86;74.25;100131.81;1731985;82;21565;-57
2021/12/18 10:41:31;;;;;;;3.12;1.77;;;;;;;0.88;73.31;100135.72;1696722;83;21498;-58
2021/12/18 10:44:04;;;;;;;1.87;1.42;;;;;;;0.84;73.27;100128.36;1726872;82;21902;-58
2021/12/18 10:46:32;;;;;;;2.70;1.77;;;;;;;0.89;73.11;100127.95;1714085;82;21530;-57
2021/12/18 10:49:06;;;;;;;3.20;1.80;;;;;;;0.91;72.24;100125.37;1733353;82;21490;-58
2021/12/18 10:51:35;;;;;;;2.27;1.92;;;;;;;0.92;71.56;100119.33;1714616;82;21424;-60
2021/12/18 10:54:11;;;;;;;;;;;;;;;0.93;72.40;100128.40;1728366;82;21555;-59
2021/12/18 10:56:41;;;;;;;3.27;2.22;;;;;;;0.94;72.00;100125.37;1723718;81;21786;-57
2021/12/18 10:59:25;;;;;;;4.25;2.80;;;;;;;0.90;71.81;100121.91;1707829;82;21602;-58
2021/12/18 11:02:01;;;;;;;3.15;2.20;;;;;;;0.91;71.97;100127.53;1728470;82;21423;-59
2021/12/18 11:04:34;;;;;;;2.65;1.70;;;;;;;0.88;71.52;100130.53;1728426;81;20990;-59
2021/12/18 11:07:25;;;;;;;1.50;1.40;;;;;;;0.90;71.72;100127.08;1670283;82;21509;-56
2021/12/18 11:10:14;;;;;;;1.87;1.35;;;;;;;0.93;71.81;100124.95;1685198;82;22166;-58
2021/12/18 11:15:25;;;;;;;2.17;1.75;;;;;;;0.90;71.04;100135.28;1709228;82;21432;-57
2021/12/18 11:17:54;;;;;;;2.20;1.72;;;;;;;0.86;70.82;100121.90;1728537;82;21617;-57
2021/12/18 11:20:24;;;;;;;3.45;1.70;;;;;;;0.86;71.46;100121.45;1711355;82;21577;-57
2021/12/18 11:22:55;;;;;;;2.40;1.60;;;;;;;0.91;70.96;100122.80;1707061;83;21793;-57
2021/12/18 11:25:22;;;;;;;2.10;1.55;;;;;;;0.95;70.30;100118.05;1704985;83;21523;-56
2021/12/18 11:27:51;;;;;;;1.98;1.77;;;;;;;0.94;70.10;100113.72;1713831;82;21479;-57
2021/12/18 11:30:19;;;;;;;1.67;1.35;;;;;;;0.94;69.78;100122.78;1716835;82;21569;-58
2021/12/18 11:32:54;;;;;;;3.80;1.82;;;;;;;0.97;69.89;100123.66;1713740;82;21419;-57
2021/12/18 11:35:20;;;;;;;1.62;1.42;;;;;;;0.99;69.43;100118.50;1688195;82;21748;-58
2021/12/18 11:38:07;;;;;;;4.10;1.90;;;;;;;0.98;68.78;100112.90;1684399;83;21480;-57
2021/12/18 11:40:36;;;;;;;;;;;;;;;0.99;67.80;100105.55;1684070;84;21417;-57
2021/12/18 11:43:09;;;;;;;4.05;1.85;;;;;;;0.97;68.01;100108.56;1686799;83;20435;-56
2021/12/18 11:45:36;;;;;;;9.68;2.25;;;;;;;1.02;68.30;100101.69;1647729;85;21441;-56
2021/12/18 11:48:04;;;;;;;4.27;2.00;;;;;;;1.01;68.15;100096.50;1685944;83;21790;-56
2021/12/18 11:50:37;;;;;;;4.45;1.80;;;;;;;1.04;68.27;100093.49;1676183;84;21787;-56
2021/12/18 11:53:10;;;;;;;3.85;1.75;;;;;;;1.03;67.53;100084.41;1677639;83;21578;-57
2021/12/18 11:55:54;;;;;;;2.08;1.55;;;;;;;0.96;67.51;100093.47;1652668;86;21499;-57
2021/12/18 11:58:34;;;;;;;2.85;1.77;;;;;;;0.92;67.52;100100.80;1646071;84;21602;-56
2021/12/18 12:01:05;;;;;;;2.10;1.50;;;;;;;0.90;67.74;100096.45;1655261;86;21805;-56
2021/12/18 12:03:40;;;;;;;3.42;2.00;;;;;;;0.92;68.09;100102.09;1684846;83;20971;-57
2021/12/18 12:06:24;;;;;;;5.05;2.75;;;;;;;0.94;68.73;100096.48;1686107;83;20968;-56
2021/12/18 12:09:27;;;;;;;4.00;2.20;;;;;;;1.01;68.61;100088.73;1674135;83;21417;-56
2021/12/18 12:11:58;;;;;;;4.78;3.12;;;;;;;1.01;68.29;100080.96;1682443;83;21570;-57
2021/12/18 12:14:31;;;;;;;7.30;3.95;;;;;;;1.04;68.68;100092.20;1677078;83;21784;-56
2021/12/18 12:17:08;;;;;;;4.87;3.17;;;;;;;1.05;68.62;100083.55;1675471;83;21543;-57
2021/12/18 12:19:44;;;;;;;5.40;3.47;;;;;;;1.09;68.60;100089.20;1689944;83;21443;-56
2021/12/18 12:22:34;;;;;;;3.35;2.62;;;;;;;1.03;68.85;100084.41;1695269;83;21510;-56
2021/12/18 12:25:03;;;;;;;5.60;3.08;;;;;;;0.97;68.90;100089.14;1699560;83;21529;-57
2021/12/18 12:27:37;;;;;;;5.17;2.90;;;;;;;0.90;68.80;100093.86;1713332;83;21517;-57
2021/12/18 12:30:09;;;;;;;3.37;2.52;;;;;;;0.86;69.18;100090.83;1693689;83;21498;-58
2021/12/18 12:32:36;;;;;;;4.00;3.17;;;;;;;0.87;69.25;100096.45;1709451;83;21391;-58
2021/12/18 12:35:10;;;;;;;6.03;4.00;;;;;;;0.91;69.49;100096.90;1684610;83;21568;-58
2021/12/18 12:37:43;;;;;;;6.47;3.20;;;;;;;0.92;69.95;100099.50;1708751;82;21462;-56
2021/12/18 12:40:32;;;;;;;2.92;2.72;;;;;;;0.92;70.82;100103.38;1707540;82;21806;-56
2021/12/18 12:43:23;;;;;;;3.35;2.65;;;;;;;0.73;73.03;100108.88;1689954;83;21523;-56
2021/12/18 12:45:53;;;;;;;4.33;2.95;;;;;;;0.68;73.26;100106.73;1710363;81;21434;-55
2021/12/18 12:48:20;;;;;;;3.80;2.65;;;;;;;0.55;73.94;100112.27;1709656;81;21514;-59